createdAt,value
2022-10-09T00:00:31.927Z,19.10
2022-10-09T00:02:59.308Z,19.37
2022-10-09T00:05:26.964Z,19.60
2022-10-09T00:07:54.453Z,19.27
2022-10-09T00:10:23.271Z,18.77
2022-10-09T00:12:51.366Z,18.93
2022-10-09T00:15:19.134Z,20.20
2022-10-09T00:17:47.817Z,19.33
2022-10-09T00:20:15.402Z,19.13
2022-10-09T00:22:43.440Z,18.67
2022-10-09T00:25:11.185Z,20.17
2022-10-09T00:27:38.734Z,19.00
2022-10-09T00:30:07.442Z,19.47
2022-10-09T00:32:34.776Z,19.03
2022-10-09T00:35:03.499Z,19.87
2022-10-09T00:37:30.978Z,20.57
2022-10-09T00:39:58.601Z,20.03
2022-10-09T00:42:26.326Z,20.50
2022-10-09T00:44:57.648Z,20.03
2022-10-09T00:47:29.484Z,21.33
2022-10-09T00:50:00.583Z,19.97
2022-10-09T00:52:29.345Z,20.37
2022-10-09T00:54:57.122Z,20.33
2022-10-09T00:57:24.525Z,20.63
2022-10-09T00:59:52.073Z,20.27
2022-10-09T01:02:19.545Z,20.33
2022-10-09T01:04:46.969Z,21.27
2022-10-09T01:07:27.223Z,20.10
2022-10-09T01:09:58.776Z,20.63
2022-10-09T01:12:33.485Z,19.87
2022-10-09T01:15:10.718Z,19.20
2022-10-09T01:17:42.884Z,19.10
2022-10-09T01:20:30.973Z,19.70
2022-10-09T01:23:07.897Z,19.33
2022-10-09T01:25:40.255Z,19.57
2022-10-09T01:28:10.615Z,19.33
2022-10-09T01:30:38.299Z,19.23
2022-10-09T01:33:05.941Z,18.57
2022-10-09T01:35:33.385Z,17.93
2022-10-09T01:38:02.388Z,19.87
2022-10-09T01:40:31.253Z,18.07
2022-10-09T01:42:59.232Z,19.10
2022-10-09T01:45:38.197Z,19.37
2022-10-09T01:48:06.006Z,18.57
2022-10-09T01:50:35.695Z,18.43
2022-10-09T01:53:05.358Z,17.73
2022-10-09T01:55:39.789Z,19.57
2022-10-09T01:58:12.263Z,20.37
2022-10-09T02:00:44.210Z,19.97
2022-10-09T02:06:42.937Z,20.10
2022-10-09T02:09:13.713Z,19.93
2022-10-09T02:11:43.065Z,20.27
2022-10-09T02:14:10.805Z,20.50
2022-10-09T02:16:40.754Z,20.93
2022-10-09T02:19:11.806Z,19.80
2022-10-09T02:21:45.086Z,20.50
2022-10-09T02:24:16.295Z,21.07
2022-10-09T02:26:43.669Z,21.13
2022-10-09T02:29:11.461Z,20.77
2022-10-09T02:31:41.910Z,20.30
2022-10-09T02:34:10.693Z,19.67
2022-10-09T02:36:39.621Z,19.17
2022-10-09T02:39:07.604Z,20.07
2022-10-09T02:41:35.353Z,20.50
2022-10-09T02:44:03.108Z,19.27
2022-10-09T02:46:30.711Z,20.63
2022-10-09T02:48:59.566Z,20.50
2022-10-09T02:51:27.099Z,19.53
2022-10-09T02:53:54.824Z,19.30
2022-10-09T02:56:22.258Z,18.90
2022-10-09T02:58:49.684Z,19.43
2022-10-09T03:01:17.092Z,19.90
2022-10-09T03:03:44.777Z,19.80
2022-10-09T03:06:15.303Z,19.90
2022-10-09T03:08:44.465Z,20.03
2022-10-09T03:11:13.965Z,20.97
2022-10-09T03:13:41.706Z,20.67
2022-10-09T03:16:11.046Z,19.63
2022-10-09T03:18:39.025Z,20.83
2022-10-09T03:21:07.461Z,19.83
2022-10-09T03:23:36.562Z,20.37
2022-10-09T03:26:06.195Z,19.80
2022-10-09T03:28:36.325Z,19.90
2022-10-09T03:31:04.034Z,19.77
2022-10-09T03:33:32.585Z,18.97
2022-10-09T03:36:00.144Z,18.47
2022-10-09T03:38:27.485Z,18.73
2022-10-09T03:40:56.157Z,17.53
2022-10-09T03:43:23.493Z,17.27
2022-10-09T03:45:50.890Z,17.97
2022-10-09T03:48:18.337Z,18.50
2022-10-09T03:50:45.689Z,18.77
2022-10-09T03:53:13.482Z,16.67
2022-10-09T03:55:41.076Z,15.37
2022-10-09T03:58:10.233Z,16.13
2022-10-09T04:00:38.086Z,15.47
2022-10-09T04:03:05.552Z,15.17
2022-10-09T04:05:34.222Z,15.93
2022-10-09T04:08:01.693Z,16.00
2022-10-09T04:10:29.089Z,15.73
2022-10-09T04:12:56.525Z,16.77
2022-10-09T04:15:25.205Z,16.43
2022-10-09T04:17:52.549Z,15.63
2022-10-09T04:20:20.952Z,16.30
2022-10-09T04:22:48.560Z,15.50
2022-10-09T04:25:16.414Z,15.83
2022-10-09T04:28:15.827Z,15.93
2022-10-09T04:30:44.518Z,16.27
2022-10-09T04:33:13.071Z,16.57
2022-10-09T04:35:42.558Z,16.63
2022-10-09T04:38:09.879Z,16.80
2022-10-09T04:40:37.239Z,18.10
2022-10-09T04:43:04.894Z,19.30
2022-10-09T04:45:32.323Z,18.40
2022-10-09T04:48:01.005Z,18.73
2022-10-09T04:50:28.409Z,17.23
2022-10-09T04:52:58.583Z,18.77
2022-10-09T04:55:26.380Z,19.70
2022-10-09T04:57:53.730Z,19.00
2022-10-09T05:00:21.114Z,20.23
2022-10-09T05:02:48.729Z,19.03
2022-10-09T05:05:17.645Z,18.80
2022-10-09T05:07:44.972Z,18.70
2022-10-09T05:10:12.341Z,19.40
2022-10-09T05:12:39.862Z,19.30
2022-10-09T05:15:08.216Z,18.60
2022-10-09T05:17:36.302Z,17.53
2022-10-09T05:20:04.390Z,19.33
2022-10-09T05:22:35.097Z,17.87
2022-10-09T05:25:05.143Z,19.47
2022-10-09T05:27:35.085Z,20.17
2022-10-09T05:30:06.760Z,19.30
2022-10-09T05:32:45.691Z,18.47
2022-10-09T05:35:20.438Z,18.90
2022-10-09T05:38:03.034Z,18.73
2022-10-09T05:40:39.051Z,18.63
2022-10-09T05:43:42.883Z,18.73
2022-10-09T05:46:14.498Z,17.93
2022-10-09T05:48:47.841Z,18.00
2022-10-09T05:51:26.493Z,18.20
2022-10-09T05:54:01.766Z,18.97
2022-10-09T05:56:35.386Z,17.00
2022-10-09T05:59:22.147Z,17.43
2022-10-09T06:07:54.829Z,17.57
2022-10-09T06:10:33.084Z,17.17
2022-10-09T06:13:06.278Z,18.10
2022-10-09T06:15:53.719Z,17.93
2022-10-09T06:18:40.307Z,17.63
2022-10-09T06:21:17.618Z,18.40
2022-10-09T06:24:04.044Z,17.53
2022-10-09T06:27:13.799Z,16.50
2022-10-09T06:29:49.977Z,17.40
2022-10-09T06:32:36.023Z,17.43
2022-10-09T06:35:10.899Z,17.73
2022-10-09T06:37:49.571Z,18.00
2022-10-09T06:40:22.988Z,17.17
2022-10-09T06:43:27.492Z,17.63
2022-10-09T06:46:00.571Z,18.43
2022-10-09T06:48:34.294Z,18.03
2022-10-09T06:51:07.138Z,17.87
2022-10-09T06:53:37.762Z,18.33
2022-10-09T06:56:10.196Z,17.60
2022-10-09T06:58:43.539Z,18.97
2022-10-09T07:01:20.321Z,21.17
2022-10-09T07:03:55.934Z,19.80
2022-10-09T07:06:31.233Z,19.27
2022-10-09T07:09:09.154Z,18.00
2022-10-09T07:11:44.822Z,18.70
2022-10-09T07:14:21.855Z,19.47
2022-10-09T07:16:58.747Z,19.43
2022-10-09T07:19:34.690Z,18.93
2022-10-09T07:22:12.195Z,19.13
2022-10-09T07:24:44.023Z,20.83
2022-10-09T07:27:18.125Z,20.50
2022-10-09T07:29:55.766Z,20.33
2022-10-09T07:32:27.211Z,21.90
2022-10-09T07:34:57.741Z,20.90
2022-10-09T07:37:27.434Z,21.70
2022-10-09T07:39:56.751Z,22.20
2022-10-09T07:42:28.399Z,23.43
2022-10-09T07:44:58.290Z,23.17
2022-10-09T07:47:26.700Z,23.63
2022-10-09T07:49:55.685Z,22.50
2022-10-09T07:52:24.612Z,23.33
2022-10-09T07:54:53.546Z,22.30
2022-10-09T07:57:22.521Z,23.13
2022-10-09T07:59:51.709Z,23.80
2022-10-09T08:02:20.806Z,22.90
2022-10-09T08:04:49.340Z,22.90
2022-10-09T08:07:20.590Z,22.33
2022-10-09T08:09:48.873Z,22.80
2022-10-09T08:12:17.400Z,23.00
2022-10-09T08:14:47.017Z,23.57
2022-10-09T08:17:15.213Z,23.53
2022-10-09T08:19:46.044Z,22.93
2022-10-09T08:22:15.164Z,22.87
2022-10-09T08:24:44.221Z,23.30
2022-10-09T08:27:12.654Z,23.40
2022-10-09T08:29:40.725Z,22.70
2022-10-09T08:32:08.246Z,23.10
2022-10-09T08:34:35.742Z,23.53
2022-10-09T08:37:04.535Z,22.83
2022-10-09T08:39:32.747Z,22.33
2022-10-09T08:42:03.445Z,22.00
2022-10-09T08:44:34.738Z,21.53
2022-10-09T08:47:06.250Z,20.83
2022-10-09T08:49:39.493Z,21.17
2022-10-09T08:52:19.236Z,21.13
2022-10-09T08:54:46.884Z,20.97
2022-10-09T08:57:17.241Z,21.10
2022-10-09T08:59:48.376Z,20.00
2022-10-09T09:02:31.621Z,20.50
2022-10-09T09:05:26.700Z,21.33
2022-10-09T09:08:03.058Z,20.17
2022-10-09T09:10:42.231Z,20.40
2022-10-09T09:13:23.656Z,21.20
2022-10-09T09:15:58.829Z,20.93
2022-10-09T09:18:42.525Z,22.43
2022-10-09T09:21:19.078Z,21.00
2022-10-09T09:23:50.483Z,21.07
2022-10-09T09:26:24.826Z,21.30
2022-10-09T09:28:59.822Z,21.17
2022-10-09T09:31:32.052Z,20.87
2022-10-09T09:34:06.987Z,21.70
2022-10-09T09:36:43.874Z,20.17
2022-10-09T09:42:15.788Z,19.83
2022-10-09T09:44:50.160Z,20.27
2022-10-09T09:47:24.861Z,16.93
2022-10-09T09:49:58.236Z,17.23
2022-10-09T09:52:28.921Z,16.53
2022-10-09T09:55:01.725Z,16.07
2022-10-09T09:57:42.024Z,16.90
2022-10-09T10:00:20.855Z,15.90
2022-10-09T10:02:50.100Z,15.93
2022-10-09T10:05:26.479Z,15.50
2022-10-09T10:07:58.084Z,14.60
2022-10-09T10:10:32.332Z,14.90
2022-10-09T10:13:08.374Z,15.77
2022-10-09T10:15:38.134Z,15.53
2022-10-09T10:18:08.581Z,16.20
2022-10-09T10:20:48.324Z,14.87
2022-10-09T10:23:39.256Z,14.50
2022-10-09T10:26:22.159Z,16.10
2022-10-09T10:28:58.976Z,14.70
2022-10-09T10:31:40.276Z,14.67
2022-10-09T10:34:18.059Z,14.63
2022-10-09T10:36:49.367Z,17.10
2022-10-09T10:42:35.532Z,15.50
2022-10-09T10:45:12.157Z,16.10
2022-10-09T10:47:45.573Z,16.87
2022-10-09T10:50:20.478Z,15.63
2022-10-09T10:53:03.725Z,15.30
2022-10-09T10:55:40.598Z,15.60
2022-10-09T10:58:26.686Z,15.90
2022-10-09T11:01:08.068Z,15.90
2022-10-09T11:04:07.525Z,16.10
2022-10-09T11:06:42.058Z,15.90
2022-10-09T11:09:15.493Z,16.80
2022-10-09T11:11:47.488Z,15.90
2022-10-09T11:14:31.131Z,16.40
2022-10-09T11:17:07.222Z,16.13
2022-10-09T11:19:54.539Z,16.27
2022-10-09T11:22:36.188Z,16.27
2022-10-09T11:25:17.273Z,16.17
2022-10-09T11:27:49.135Z,16.20
2022-10-09T11:30:19.898Z,16.47
2022-10-09T11:32:55.626Z,16.03
2022-10-09T11:35:24.244Z,15.90
2022-10-09T11:37:59.015Z,16.17
2022-10-09T11:40:33.559Z,15.63
2022-10-09T11:43:05.516Z,16.20
2022-10-09T11:45:38.503Z,15.97
2022-10-09T11:48:10.191Z,15.87
2022-10-09T11:50:47.589Z,16.40
2022-10-09T11:53:17.689Z,15.70
2022-10-09T11:55:48.011Z,15.40
2022-10-09T11:58:23.524Z,15.63
2022-10-09T12:00:54.890Z,15.60
2022-10-09T12:03:30.091Z,15.80
2022-10-09T12:06:06.105Z,16.20
2022-10-09T12:08:34.196Z,15.50
2022-10-09T12:11:15.267Z,15.60
2022-10-09T12:13:49.535Z,15.60
2022-10-09T12:16:39.505Z,15.53
2022-10-09T12:19:19.799Z,16.17
2022-10-09T12:21:51.877Z,15.50
2022-10-09T12:24:22.608Z,15.50
2022-10-09T12:26:51.910Z,15.87
2022-10-09T12:29:24.451Z,15.60
2022-10-09T12:31:55.730Z,15.90
2022-10-09T12:34:25.817Z,15.40
2022-10-09T12:37:04.403Z,15.90
2022-10-09T12:39:33.729Z,15.33
2022-10-09T12:42:01.357Z,15.70
2022-10-09T12:44:31.841Z,15.50
2022-10-09T12:47:03.731Z,15.47
2022-10-09T12:49:31.727Z,15.40
2022-10-09T12:52:00.407Z,15.40
2022-10-09T12:54:29.847Z,14.80
2022-10-09T12:56:58.358Z,14.90
2022-10-09T12:59:26.760Z,14.87
2022-10-09T13:01:58.047Z,15.03
2022-10-09T13:04:31.098Z,15.47
2022-10-09T13:06:59.827Z,14.90
2022-10-09T13:09:30.279Z,15.00
2022-10-09T13:12:01.018Z,14.90
2022-10-09T13:14:35.431Z,15.30
2022-10-09T13:17:03.473Z,14.90
2022-10-09T13:19:35.297Z,14.80
2022-10-09T13:22:21.330Z,14.70
2022-10-09T13:24:53.099Z,14.80
2022-10-09T13:27:21.837Z,14.30
2022-10-09T13:29:49.927Z,15.27
2022-10-09T13:32:19.046Z,14.77
2022-10-09T13:34:48.590Z,14.80
2022-10-09T13:37:20.104Z,14.77
2022-10-09T13:39:48.015Z,14.27
2022-10-09T13:42:16.756Z,14.40
2022-10-09T13:44:44.315Z,14.53
2022-10-09T13:47:12.156Z,14.20
2022-10-09T13:49:42.814Z,14.47
2022-10-09T13:52:12.267Z,14.50
2022-10-09T13:54:40.327Z,14.13
2022-10-09T13:57:08.099Z,14.43
2022-10-09T13:59:36.202Z,14.57
2022-10-09T14:02:03.667Z,14.70
2022-10-09T14:04:31.400Z,14.50
2022-10-09T14:06:58.950Z,14.23
2022-10-09T14:09:40.135Z,14.77
2022-10-09T14:12:07.670Z,14.50
2022-10-09T14:14:35.226Z,14.03
2022-10-09T14:17:02.613Z,14.47
2022-10-09T14:19:30.013Z,14.03
2022-10-09T14:21:58.268Z,14.60
2022-10-09T14:24:26.458Z,14.20
2022-10-09T14:26:55.231Z,14.40
2022-10-09T14:29:22.714Z,14.57
2022-10-09T14:31:50.501Z,14.00
2022-10-09T14:34:18.016Z,14.20
2022-10-09T14:36:45.417Z,14.50
2022-10-09T14:39:12.828Z,14.43
2022-10-09T14:41:40.250Z,14.10
2022-10-09T14:44:10.900Z,14.33
2022-10-09T14:46:39.232Z,14.30
2022-10-09T14:49:08.058Z,14.77
2022-10-09T14:51:37.091Z,15.10
2022-10-09T14:54:05.627Z,14.70
2022-10-09T14:56:33.185Z,14.97
2022-10-09T14:59:01.260Z,14.83
2022-10-09T15:01:30.352Z,14.60
2022-10-09T15:03:57.839Z,14.70
2022-10-09T15:06:25.351Z,15.27
2022-10-09T15:08:55.639Z,14.90
2022-10-09T15:11:23.319Z,14.63
2022-10-09T15:13:50.874Z,14.50
2022-10-09T15:16:19.450Z,14.00
2022-10-09T15:18:50.603Z,14.43
2022-10-09T15:21:19.373Z,14.00
2022-10-09T15:23:47.301Z,14.43
2022-10-09T15:26:15.099Z,14.10
2022-10-09T15:28:43.952Z,14.43
2022-10-09T15:31:19.786Z,14.17
2022-10-09T15:33:48.843Z,14.30
2022-10-09T15:36:16.318Z,13.97
2022-10-09T15:38:43.693Z,14.27
2022-10-09T15:41:20.882Z,13.83
2022-10-09T15:43:48.607Z,14.07
2022-10-09T15:46:16.017Z,14.43
2022-10-09T15:48:43.592Z,13.43
2022-10-09T15:51:13.951Z,13.73
2022-10-09T15:53:42.595Z,13.73
2022-10-09T15:56:13.788Z,14.07
2022-10-09T15:58:42.129Z,13.70
2022-10-09T16:01:14.479Z,13.70
2022-10-09T16:03:43.683Z,14.17
2022-10-09T16:06:15.866Z,14.30
2022-10-09T16:08:44.150Z,14.20
2022-10-09T16:11:13.895Z,15.03
2022-10-09T16:13:46.876Z,14.10
2022-10-09T16:16:18.895Z,14.40
2022-10-09T16:18:48.184Z,13.90
2022-10-09T16:21:18.835Z,14.23
2022-10-09T16:23:47.418Z,14.13
2022-10-09T16:26:18.970Z,13.00
2022-10-09T16:28:47.158Z,13.63
2022-10-09T16:31:19.119Z,13.83
2022-10-09T16:36:15.282Z,14.17
2022-10-09T16:38:44.150Z,14.20
2022-10-09T16:41:14.658Z,14.20
2022-10-09T16:43:42.142Z,13.90
2022-10-09T16:46:11.735Z,13.97
2022-10-09T16:48:39.280Z,14.37
2022-10-09T16:51:11.159Z,13.90
2022-10-09T16:53:38.664Z,13.27
2022-10-09T16:56:12.376Z,13.70
2022-10-09T16:58:40.713Z,13.50
2022-10-09T17:01:10.513Z,13.50
2022-10-09T17:03:40.307Z,13.60
2022-10-09T17:06:09.407Z,13.53
2022-10-09T17:08:37.432Z,13.83
2022-10-09T17:11:07.838Z,13.27
2022-10-09T17:13:36.958Z,13.13
2022-10-09T17:16:06.394Z,12.60
2022-10-09T17:18:35.528Z,12.33
2022-10-09T17:21:03.553Z,12.40
2022-10-09T17:23:31.089Z,11.57
2022-10-09T17:25:58.576Z,12.00
2022-10-09T17:28:26.104Z,11.93
2022-10-09T17:30:54.934Z,10.83
2022-10-09T17:33:22.431Z,9.93
2022-10-09T17:35:49.886Z,11.00
2022-10-09T17:38:17.458Z,10.00
2022-10-09T17:40:45.288Z,10.20
2022-10-09T17:43:13.147Z,10.00
2022-10-09T17:45:41.086Z,10.40
2022-10-09T17:48:10.642Z,10.23
2022-10-09T17:50:38.070Z,10.10
2022-10-09T17:53:07.074Z,10.27
2022-10-09T17:55:40.354Z,10.23
2022-10-09T17:58:08.231Z,10.20
2022-10-09T18:00:37.741Z,10.50
2022-10-09T18:03:05.295Z,10.37
2022-10-09T18:05:38.647Z,10.20
2022-10-09T18:08:08.106Z,10.10
2022-10-09T18:10:39.516Z,11.23
2022-10-09T18:13:08.170Z,10.33
2022-10-09T18:15:37.648Z,10.67
2022-10-09T18:18:05.355Z,10.53
2022-10-09T18:20:37.335Z,10.63
2022-10-09T18:23:05.538Z,10.83
2022-10-09T18:25:35.590Z,11.13
2022-10-09T18:28:03.651Z,11.57
2022-10-09T18:30:32.041Z,11.77
2022-10-09T18:32:59.525Z,11.70
2022-10-09T18:35:27.066Z,12.00
2022-10-09T18:37:56.179Z,11.83
2022-10-09T18:40:24.822Z,11.63
2022-10-09T18:42:53.167Z,11.60
2022-10-09T18:45:20.810Z,12.10
2022-10-09T18:47:49.540Z,12.30
2022-10-09T18:50:17.391Z,12.23
2022-10-09T18:52:45.325Z,12.93
2022-10-09T18:55:16.149Z,12.30
2022-10-09T18:57:44.341Z,12.47
2022-10-09T19:00:16.217Z,12.23
2022-10-09T19:02:44.070Z,12.40
2022-10-09T19:05:12.564Z,11.70
2022-10-09T19:07:40.418Z,12.77
2022-10-09T19:10:09.400Z,11.73
2022-10-09T19:12:39.753Z,11.80
2022-10-09T19:15:12.111Z,11.93
2022-10-09T19:17:40.429Z,11.30
2022-10-09T19:20:09.974Z,11.10
2022-10-09T19:22:39.191Z,10.73
2022-10-09T19:25:07.297Z,11.70
2022-10-09T19:27:34.815Z,10.97
2022-10-09T19:30:04.120Z,10.43
2022-10-09T19:32:31.827Z,11.33
2022-10-09T19:34:59.867Z,11.27
2022-10-09T19:37:29.688Z,11.13
2022-10-09T19:39:57.739Z,11.43
2022-10-09T19:42:25.529Z,11.37
2022-10-09T19:44:53.170Z,11.13
2022-10-09T19:47:23.818Z,11.13
2022-10-09T19:49:51.457Z,11.30
2022-10-09T19:52:20.028Z,12.47
2022-10-09T19:54:47.546Z,12.73
2022-10-09T19:57:14.915Z,14.43
2022-10-09T19:59:42.430Z,13.50
2022-10-09T20:02:09.872Z,14.40
2022-10-09T20:04:53.691Z,14.37
2022-10-09T20:07:21.156Z,14.27
2022-10-09T20:09:48.662Z,14.33
2022-10-09T20:12:17.868Z,13.90
2022-10-09T20:14:45.580Z,13.90
2022-10-09T20:17:13.124Z,15.23
2022-10-09T20:19:45.416Z,16.33
2022-10-09T20:22:14.563Z,14.57
2022-10-09T20:24:42.047Z,13.87
2022-10-09T20:27:09.504Z,16.00
2022-10-09T20:29:37.101Z,15.93
2022-10-09T20:32:04.697Z,14.23
2022-10-09T20:34:32.115Z,13.90
2022-10-09T20:36:59.576Z,14.30
2022-10-09T20:39:28.490Z,17.73
2022-10-09T20:41:56.107Z,13.10
2022-10-09T20:44:23.713Z,13.07
2022-10-09T20:46:53.082Z,12.87
2022-10-09T20:49:20.606Z,11.97
2022-10-09T20:51:49.499Z,13.03
2022-10-09T20:54:18.793Z,12.10
2022-10-09T20:56:47.936Z,12.87
2022-10-09T20:59:15.582Z,12.80
2022-10-09T21:01:43.785Z,12.63
2022-10-09T21:04:12.259Z,12.33
2022-10-09T21:06:40.611Z,13.27
2022-10-09T21:09:09.967Z,13.33
2022-10-09T21:11:38.879Z,12.77
2022-10-09T21:14:08.358Z,13.23
2022-10-09T21:16:36.692Z,12.67
2022-10-09T21:19:05.819Z,12.50
2022-10-09T21:21:34.913Z,12.97
2022-10-09T21:24:03.100Z,12.17
2022-10-09T21:26:35.548Z,12.77
2022-10-09T21:29:03.939Z,12.90
2022-10-09T21:31:33.786Z,12.50
2022-10-09T21:34:01.932Z,12.37
2022-10-09T21:36:36.957Z,13.57
2022-10-09T21:39:05.911Z,13.20
2022-10-09T21:41:38.637Z,13.00
2022-10-09T21:44:07.247Z,13.20
2022-10-09T21:46:36.473Z,13.00
2022-10-09T21:49:07.634Z,13.20
2022-10-09T21:51:35.880Z,13.40
2022-10-09T21:54:03.590Z,12.63
2022-10-09T21:56:31.054Z,12.73
2022-10-09T21:58:58.496Z,13.23
2022-10-09T22:01:27.307Z,12.33
2022-10-09T22:03:56.534Z,12.50
2022-10-09T22:06:24.367Z,12.87
2022-10-09T22:08:51.967Z,12.87
2022-10-09T22:11:19.860Z,13.13
2022-10-09T22:13:47.369Z,13.00
2022-10-09T22:16:15.902Z,11.93
2022-10-09T22:18:43.892Z,12.57
2022-10-09T22:21:15.283Z,13.47
2022-10-09T22:23:43.101Z,13.57
2022-10-09T22:26:12.670Z,13.13
2022-10-09T22:28:40.146Z,13.13
2022-10-09T22:31:09.345Z,12.93
2022-10-09T22:33:37.223Z,12.30
2022-10-09T22:36:09.754Z,12.87
2022-10-09T22:38:39.300Z,12.57
2022-10-09T22:41:08.567Z,13.07
2022-10-09T22:43:36.332Z,12.67
2022-10-09T22:46:09.226Z,13.00
2022-10-09T22:48:36.938Z,13.07
2022-10-09T22:51:06.249Z,13.70
2022-10-09T22:53:34.661Z,13.57
2022-10-09T22:56:05.272Z,12.43
2022-10-09T22:58:32.831Z,12.70
2022-10-09T23:01:03.595Z,12.57
2022-10-09T23:03:31.007Z,12.67
2022-10-09T23:06:06.114Z,12.53
2022-10-09T23:08:33.545Z,12.53
2022-10-09T23:11:01.275Z,13.40
2022-10-09T23:13:30.055Z,12.10
2022-10-09T23:15:57.467Z,12.60
2022-10-09T23:18:24.857Z,13.10
2022-10-09T23:20:52.272Z,12.63
2022-10-09T23:23:19.669Z,12.07
2022-10-09T23:25:47.051Z,12.67
2022-10-09T23:28:14.485Z,12.40
2022-10-09T23:30:43.228Z,12.20
2022-10-09T23:33:10.604Z,12.60
2022-10-09T23:35:41.166Z,11.30
2022-10-09T23:38:09.021Z,11.13
2022-10-09T23:40:38.438Z,11.37
2022-10-09T23:43:05.830Z,10.37
2022-10-09T23:45:33.243Z,9.77
2022-10-09T23:48:01.962Z,9.50
2022-10-09T23:50:29.356Z,9.80
2022-10-09T23:52:56.798Z,10.47
2022-10-09T23:55:25.416Z,11.20
2022-10-09T23:57:52.954Z,12.07
